createdAt,value
2018-07-08T00:00:50.418Z,0.00
2018-07-08T00:01:50.405Z,0.00
2018-07-08T00:02:50.445Z,0.00
2018-07-08T00:03:50.420Z,0.00
2018-07-08T00:04:50.372Z,0.00
2018-07-08T00:05:50.371Z,0.00
2018-07-08T00:06:50.353Z,0.00
2018-07-08T00:07:50.351Z,0.00
2018-07-08T00:08:50.367Z,0.00
2018-07-08T00:09:50.322Z,0.00
2018-07-08T00:10:50.306Z,0.00
2018-07-08T00:11:50.299Z,0.00
2018-07-08T00:12:50.292Z,0.00
2018-07-08T00:13:50.273Z,0.00
2018-07-08T00:14:50.303Z,0.00
2018-07-08T00:15:50.249Z,0.00
2018-07-08T00:16:50.243Z,0.00
2018-07-08T00:17:50.228Z,0.00
2018-07-08T00:18:50.220Z,0.00
2018-07-08T00:19:50.229Z,0.00
2018-07-08T00:20:50.195Z,0.00
2018-07-08T00:21:50.187Z,0.00
2018-07-08T00:22:50.180Z,0.00
2018-07-08T00:23:50.176Z,0.00
2018-07-08T00:24:50.155Z,0.00
2018-07-08T00:25:50.185Z,0.00
2018-07-08T00:26:50.143Z,0.00
2018-07-08T00:27:50.118Z,0.00
2018-07-08T00:28:50.111Z,0.00
2018-07-08T00:29:50.105Z,0.00
2018-07-08T00:30:50.089Z,0.00
2018-07-08T00:31:50.099Z,0.00
2018-07-08T00:32:50.065Z,0.00
2018-07-08T00:33:50.093Z,0.00
2018-07-08T00:34:50.046Z,0.00
2018-07-08T00:35:50.034Z,0.00
2018-07-08T00:36:50.023Z,0.00
2018-07-08T00:37:50.025Z,0.00
2018-07-08T00:38:50.002Z,0.00
2018-07-08T00:39:50.037Z,0.00
2018-07-08T00:40:49.993Z,0.00
2018-07-08T00:41:49.967Z,0.00
2018-07-08T00:42:50.051Z,0.00
2018-07-08T00:43:49.961Z,0.00
2018-07-08T00:44:50.010Z,0.00
2018-07-08T00:45:49.922Z,0.00
2018-07-08T00:46:49.915Z,0.00
2018-07-08T00:47:49.925Z,0.00
2018-07-08T00:48:49.894Z,0.00
2018-07-08T00:49:49.880Z,0.00
2018-07-08T00:50:50.070Z,0.00
2018-07-08T00:51:49.964Z,0.00
2018-07-08T00:52:49.848Z,0.00
2018-07-08T00:53:49.900Z,0.00
2018-07-08T00:54:49.875Z,0.00
2018-07-08T00:55:49.983Z,0.00
2018-07-08T00:56:49.808Z,0.00
2018-07-08T00:57:49.871Z,0.00
2018-07-08T00:58:49.798Z,0.00
2018-07-08T00:59:49.772Z,0.00
2018-07-08T01:00:49.758Z,0.00
2018-07-08T01:01:49.754Z,0.00
2018-07-08T01:02:49.885Z,0.00
2018-07-08T01:03:49.727Z,0.00
2018-07-08T01:04:49.780Z,0.00
2018-07-08T01:05:49.705Z,0.00
2018-07-08T01:06:49.697Z,0.00
2018-07-08T01:07:49.699Z,0.00
2018-07-08T01:08:49.780Z,0.00
2018-07-08T01:09:49.659Z,0.00
2018-07-08T01:10:49.679Z,0.00
2018-07-08T01:11:49.641Z,0.00
2018-07-08T01:12:49.627Z,0.00
2018-07-08T01:13:49.619Z,0.00
2018-07-08T01:14:49.609Z,0.00
2018-07-08T01:15:49.663Z,0.00
2018-07-08T01:16:49.605Z,0.00
2018-07-08T01:17:49.572Z,0.00
2018-07-08T01:18:49.565Z,0.00
2018-07-08T01:19:49.555Z,0.00
2018-07-08T01:20:49.544Z,0.00
2018-07-08T01:21:49.529Z,0.00
2018-07-08T01:22:49.532Z,0.00
2018-07-08T01:23:49.508Z,0.00
2018-07-08T01:24:49.499Z,0.00
2018-07-08T01:25:49.489Z,0.00
2018-07-08T01:26:49.477Z,0.00
2018-07-08T01:27:49.481Z,0.00
2018-07-08T01:28:49.457Z,0.00
2018-07-08T01:29:49.508Z,0.00
2018-07-08T01:30:49.466Z,0.00
2018-07-08T01:31:49.448Z,0.00
2018-07-08T01:32:49.450Z,0.00
2018-07-08T01:33:49.416Z,0.00
2018-07-08T01:34:49.524Z,0.00
2018-07-08T01:35:49.379Z,0.00
2018-07-08T01:36:49.369Z,0.00
2018-07-08T01:37:49.407Z,0.00
2018-07-08T01:38:49.392Z,0.00
2018-07-08T01:39:49.335Z,0.00
2018-07-08T01:40:49.364Z,0.00
2018-07-08T01:41:49.312Z,0.00
2018-07-08T01:42:49.323Z,0.00
2018-07-08T01:43:49.294Z,0.00
2018-07-08T01:44:49.278Z,0.00
2018-07-08T01:45:49.268Z,0.00
2018-07-08T01:46:49.342Z,0.00
2018-07-08T01:47:49.249Z,0.00
2018-07-08T01:48:49.252Z,0.00
2018-07-08T01:49:49.284Z,0.00
2018-07-08T01:50:49.214Z,0.00
2018-07-08T01:51:49.203Z,0.00
2018-07-08T01:52:49.193Z,0.00
2018-07-08T01:53:49.203Z,0.00
2018-07-08T01:54:49.172Z,0.00
2018-07-08T01:55:49.160Z,0.00
2018-07-08T01:56:49.148Z,0.00
2018-07-08T01:57:49.140Z,0.00
2018-07-08T01:58:49.126Z,0.00
2018-07-08T01:59:49.204Z,0.00
2018-07-08T02:00:49.107Z,0.00
2018-07-08T02:01:49.094Z,0.00
2018-07-08T02:02:49.085Z,0.00
2018-07-08T02:03:49.072Z,0.00
2018-07-08T02:04:49.100Z,0.00
2018-07-08T02:05:49.050Z,0.00
2018-07-08T02:06:49.041Z,0.00
2018-07-08T02:07:49.031Z,0.00
2018-07-08T02:08:49.020Z,0.00
2018-07-08T02:09:49.034Z,0.00
2018-07-08T02:10:49.016Z,0.00
2018-07-08T02:11:48.987Z,0.00
2018-07-08T02:12:48.977Z,0.00
2018-07-08T02:13:49.016Z,0.00
2018-07-08T02:14:48.963Z,0.00
2018-07-08T02:15:48.956Z,0.00
2018-07-08T02:16:48.973Z,0.00
2018-07-08T02:17:48.924Z,0.00
2018-07-08T02:18:48.912Z,0.00
2018-07-08T02:19:48.902Z,0.00
2018-07-08T02:20:48.902Z,0.00
2018-07-08T02:21:48.952Z,0.00
2018-07-08T02:22:48.865Z,0.00
2018-07-08T02:23:48.930Z,0.00
2018-07-08T02:24:48.845Z,0.00
2018-07-08T02:25:48.998Z,0.00
2018-07-08T02:26:48.840Z,0.00
2018-07-08T02:27:48.843Z,0.00
2018-07-08T02:28:48.900Z,0.00
2018-07-08T02:29:48.791Z,0.00
2018-07-08T02:30:48.907Z,4.00
2018-07-08T02:31:48.818Z,4.00
2018-07-08T02:32:48.759Z,4.00
2018-07-08T02:33:48.748Z,0.00
2018-07-08T02:34:48.750Z,4.00
2018-07-08T02:35:48.746Z,4.00
2018-07-08T02:36:48.712Z,4.00
2018-07-08T02:37:48.750Z,4.00
2018-07-08T02:38:48.695Z,4.00
2018-07-08T02:39:48.685Z,8.00
2018-07-08T02:40:48.676Z,4.00
2018-07-08T02:41:48.669Z,8.00
2018-07-08T02:42:48.653Z,8.00
2018-07-08T02:43:48.654Z,8.00
2018-07-08T02:44:48.703Z,12.00
2018-07-08T02:45:48.621Z,12.00
2018-07-08T02:46:48.606Z,16.00
2018-07-08T02:47:48.598Z,16.00
2018-07-08T02:48:48.589Z,16.00
2018-07-08T02:49:48.576Z,20.00
2018-07-08T02:50:48.577Z,20.00
2018-07-08T02:51:48.643Z,24.00
2018-07-08T02:52:48.542Z,28.00
2018-07-08T02:53:48.654Z,28.00
2018-07-08T02:54:48.549Z,36.00
2018-07-08T02:55:48.512Z,40.00
2018-07-08T02:56:48.498Z,44.00
2018-07-08T02:57:48.604Z,48.00
2018-07-08T02:58:48.578Z,56.00
2018-07-08T02:59:48.469Z,60.00
2018-07-08T03:00:48.570Z,68.00
2018-07-08T03:01:48.482Z,76.00
2018-07-08T03:02:48.432Z,84.00
2018-07-08T03:03:48.424Z,92.00
2018-07-08T03:04:48.412Z,104.00
2018-07-08T03:05:48.403Z,116.00
2018-07-08T03:06:48.423Z,124.00
2018-07-08T03:07:48.422Z,140.00
2018-07-08T03:08:48.370Z,152.00
2018-07-08T03:09:48.373Z,164.00
2018-07-08T03:10:48.349Z,180.00
2018-07-08T03:11:48.339Z,192.00
2018-07-08T03:12:48.341Z,212.00
2018-07-08T03:13:48.314Z,228.00
2018-07-08T03:14:48.305Z,244.00
2018-07-08T03:15:48.295Z,264.00
2018-07-08T03:16:48.375Z,284.00
2018-07-08T03:17:48.287Z,308.00
2018-07-08T03:18:48.261Z,328.00
2018-07-08T03:19:48.367Z,352.00
2018-07-08T03:20:48.244Z,376.00
2018-07-08T03:21:48.230Z,404.00
2018-07-08T03:22:48.355Z,428.00
2018-07-08T03:23:48.310Z,460.00
2018-07-08T03:24:48.267Z,488.00
2018-07-08T03:25:48.187Z,520.00
2018-07-08T03:26:48.176Z,552.00
2018-07-08T03:27:48.235Z,580.00
2018-07-08T03:28:48.170Z,616.00
2018-07-08T03:29:48.201Z,652.00
2018-07-08T03:30:48.176Z,688.00
2018-07-08T03:31:48.119Z,720.00
2018-07-08T03:32:48.115Z,752.00
2018-07-08T03:33:48.113Z,792.00
2018-07-08T03:34:48.087Z,824.00
2018-07-08T03:35:48.077Z,860.00
2018-07-08T03:36:48.067Z,900.00
2018-07-08T03:37:48.153Z,936.00
2018-07-08T03:38:48.120Z,976.00
2018-07-08T03:39:48.034Z,1016.00
2018-07-08T03:40:48.024Z,1052.00
2018-07-08T03:41:48.012Z,1096.00
2018-07-08T03:42:48.004Z,1132.00
2018-07-08T03:43:48.045Z,1172.00
2018-07-08T03:44:48.016Z,1212.00
2018-07-08T03:45:47.971Z,1256.00
2018-07-08T03:46:48.029Z,1300.00
2018-07-08T03:47:47.955Z,1336.00
2018-07-08T03:48:47.934Z,1380.00
2018-07-08T03:49:47.947Z,1420.00
2018-07-08T03:50:47.930Z,1464.00
2018-07-08T03:51:47.966Z,1512.00
2018-07-08T03:52:47.892Z,1556.00
2018-07-08T03:53:47.887Z,1600.00
2018-07-08T03:54:47.875Z,1644.00
2018-07-08T03:55:47.876Z,1688.00
2018-07-08T03:56:47.850Z,1736.00
2018-07-08T03:57:47.839Z,1776.00
2018-07-08T03:58:47.848Z,1816.00
2018-07-08T03:59:47.867Z,1860.00
2018-07-08T04:00:47.822Z,1904.00
2018-07-08T04:01:47.795Z,1944.00
2018-07-08T04:02:47.865Z,1980.00
2018-07-08T04:03:47.776Z,2016.00
2018-07-08T04:04:47.765Z,2056.00
2018-07-08T04:05:47.773Z,2092.00
2018-07-08T04:06:47.742Z,2132.00
2018-07-08T04:07:47.733Z,2172.00
2018-07-08T04:08:47.718Z,2212.00
2018-07-08T04:09:47.710Z,2248.00
2018-07-08T04:10:47.700Z,2288.00
2018-07-08T04:11:47.742Z,2328.00
2018-07-08T04:12:47.675Z,2364.00
2018-07-08T04:13:47.665Z,2408.00
2018-07-08T04:14:47.657Z,2452.00
2018-07-08T04:15:47.646Z,2492.00
2018-07-08T04:16:47.726Z,2532.00
2018-07-08T04:17:47.638Z,2564.00
2018-07-08T04:18:47.712Z,2592.00
2018-07-08T04:19:47.600Z,2620.00
2018-07-08T04:20:47.590Z,2652.00
2018-07-08T04:21:47.581Z,2688.00
2018-07-08T04:22:47.644Z,2720.00
2018-07-08T04:23:47.556Z,2756.00
2018-07-08T04:24:47.550Z,2792.00
2018-07-08T04:25:47.536Z,2828.00
2018-07-08T04:26:47.524Z,2868.00
2018-07-08T04:27:47.517Z,2900.00
2018-07-08T04:28:47.514Z,2932.00
2018-07-08T04:29:47.495Z,2968.00
2018-07-08T04:30:47.482Z,2992.00
2018-07-08T04:31:47.470Z,3024.00
2018-07-08T04:32:47.530Z,3048.00
2018-07-08T04:33:47.489Z,3076.00
2018-07-08T04:34:47.438Z,3096.00
2018-07-08T04:35:47.519Z,3124.00
2018-07-08T04:36:47.484Z,3164.00
2018-07-08T04:37:47.423Z,3196.00
2018-07-08T04:38:47.415Z,3236.00
2018-07-08T04:39:47.401Z,3264.00
2018-07-08T04:40:47.373Z,3296.00
2018-07-08T04:41:47.363Z,3324.00
2018-07-08T04:42:47.353Z,3364.00
2018-07-08T04:43:47.341Z,3404.00
2018-07-08T04:44:47.345Z,3432.00
2018-07-08T04:45:47.332Z,3460.00
2018-07-08T04:46:47.370Z,3492.00
2018-07-08T04:47:47.298Z,3520.00
2018-07-08T04:48:47.285Z,3556.00
2018-07-08T04:49:47.277Z,3592.00
2018-07-08T04:50:47.279Z,3620.00
2018-07-08T04:51:47.265Z,3644.00
2018-07-08T04:52:47.243Z,3672.00
2018-07-08T04:53:47.234Z,3708.00
2018-07-08T04:54:47.356Z,3732.00
2018-07-08T04:55:47.212Z,3768.00
2018-07-08T04:56:47.314Z,3808.00
2018-07-08T04:57:47.190Z,3852.00
2018-07-08T04:58:47.182Z,3868.00
2018-07-08T04:59:47.263Z,3888.00
2018-07-08T05:00:47.171Z,3924.00
2018-07-08T05:01:47.246Z,3944.00
2018-07-08T05:02:47.178Z,3980.00
2018-07-08T05:03:47.129Z,3996.00
2018-07-08T05:04:47.121Z,4008.00
2018-07-08T05:05:47.102Z,4060.00
2018-07-08T05:06:47.098Z,4064.00
2018-07-08T05:07:47.080Z,4080.00
2018-07-08T05:08:47.083Z,4112.00
2018-07-08T05:09:47.061Z,4136.00
2018-07-08T05:10:47.056Z,4180.00
2018-07-08T05:11:47.042Z,4228.00
2018-07-08T05:12:47.142Z,4260.00
2018-07-08T05:13:47.031Z,4284.00
2018-07-08T05:14:47.004Z,4320.00
2018-07-08T05:15:47.108Z,4380.00
2018-07-08T05:16:46.986Z,4408.00
2018-07-08T05:17:46.972Z,4428.00
2018-07-08T05:18:46.975Z,4504.00
2018-07-08T05:19:47.130Z,4572.00
2018-07-08T05:20:46.938Z,4664.00
2018-07-08T05:21:46.929Z,4608.00
2018-07-08T05:22:46.918Z,4584.00
2018-07-08T05:23:46.906Z,4772.00
2018-07-08T05:24:46.916Z,4820.00
2018-07-08T05:25:46.888Z,4740.00
2018-07-08T05:26:46.880Z,4924.00
2018-07-08T05:27:46.865Z,5044.00
2018-07-08T05:28:46.855Z,5032.00
2018-07-08T05:29:46.880Z,4948.00
2018-07-08T05:30:46.845Z,4996.00
2018-07-08T05:31:46.821Z,4996.00
2018-07-08T05:32:46.808Z,4992.00
2018-07-08T05:33:46.802Z,5480.00
2018-07-08T05:34:46.789Z,5748.00
2018-07-08T05:35:46.883Z,5380.00
2018-07-08T05:36:46.766Z,5396.00
2018-07-08T05:37:46.753Z,5484.00
2018-07-08T05:38:46.742Z,5188.00
2018-07-08T05:39:46.735Z,5132.00
2018-07-08T05:40:46.721Z,5032.00
2018-07-08T05:41:46.731Z,5200.00
2018-07-08T05:42:46.803Z,5272.00
2018-07-08T05:43:46.691Z,5204.00
2018-07-08T05:44:46.677Z,5312.00
2018-07-08T05:45:46.665Z,5316.00
2018-07-08T05:46:46.660Z,5392.00
2018-07-08T05:47:46.665Z,5840.00
2018-07-08T05:48:46.635Z,5644.00
2018-07-08T05:49:46.622Z,5584.00
2018-07-08T05:50:46.613Z,5412.00
2018-07-08T05:51:46.705Z,5600.00
2018-07-08T05:52:46.591Z,5508.00
2018-07-08T05:53:46.619Z,5688.00
2018-07-08T05:54:46.568Z,5788.00
2018-07-08T05:55:46.662Z,5760.00
2018-07-08T05:56:46.546Z,5744.00
2018-07-08T05:57:46.609Z,5672.00
2018-07-08T05:58:46.617Z,5648.00
2018-07-08T05:59:46.530Z,5624.00
2018-07-08T06:00:46.504Z,5776.00
2018-07-08T06:01:46.493Z,5828.00
2018-07-08T06:02:46.601Z,6120.00
2018-07-08T06:03:46.524Z,6384.00
2018-07-08T06:04:46.460Z,6128.00
2018-07-08T06:05:46.451Z,6220.00
2018-07-08T06:06:46.517Z,6184.00
2018-07-08T06:07:46.428Z,6348.00
2018-07-08T06:08:46.417Z,6264.00
2018-07-08T06:09:46.472Z,6200.00
2018-07-08T06:10:46.424Z,6216.00
2018-07-08T06:11:46.390Z,6160.00
2018-07-08T06:12:46.377Z,6240.00
2018-07-08T06:13:46.364Z,6284.00
2018-07-08T06:14:46.382Z,6304.00
2018-07-08T06:15:46.377Z,6288.00
2018-07-08T06:16:46.385Z,6300.00
2018-07-08T06:17:46.338Z,6304.00
2018-07-08T06:18:46.311Z,6420.00
2018-07-08T06:19:46.397Z,6440.00
2018-07-08T06:20:46.309Z,6804.00
2018-07-08T06:21:46.282Z,6716.00
2018-07-08T06:22:46.270Z,7152.00
2018-07-08T06:23:46.261Z,6956.00
2018-07-08T06:24:46.309Z,6940.00
2018-07-08T06:25:46.241Z,6916.00
2018-07-08T06:26:46.246Z,7536.00
2018-07-08T06:27:46.245Z,7052.00
2018-07-08T06:28:46.205Z,7092.00
2018-07-08T06:29:46.197Z,7344.00
2018-07-08T06:30:46.183Z,8052.00
2018-07-08T06:31:46.227Z,8236.00
2018-07-08T06:32:46.196Z,8552.00
2018-07-08T06:33:46.195Z,8140.00
2018-07-08T06:34:46.140Z,7704.00
2018-07-08T06:35:46.137Z,7944.00
2018-07-08T06:36:46.118Z,8116.00
2018-07-08T06:37:46.110Z,7764.00
2018-07-08T06:38:46.108Z,7392.00
2018-07-08T06:39:46.090Z,7916.00
2018-07-08T06:40:46.075Z,7552.00
2018-07-08T06:41:46.111Z,7620.00
2018-07-08T06:42:46.054Z,7192.00
2018-07-08T06:43:46.118Z,7604.00
2018-07-08T06:44:46.031Z,7792.00
2018-07-08T06:45:46.020Z,7672.00
2018-07-08T06:46:46.085Z,7272.00
2018-07-08T06:47:45.995Z,8328.00
2018-07-08T06:48:45.987Z,7728.00
2018-07-08T06:49:45.986Z,7808.00
2018-07-08T06:50:45.977Z,8300.00
2018-07-08T06:51:45.953Z,7556.00
2018-07-08T06:52:45.966Z,7692.00
2018-07-08T06:53:45.930Z,7816.00
2018-07-08T06:54:45.949Z,8568.00
2018-07-08T06:55:45.909Z,9192.00
2018-07-08T06:56:45.997Z,12248.00
2018-07-08T06:57:45.887Z,30304.00
2018-07-08T06:58:45.875Z,42656.00
2018-07-08T06:59:45.877Z,41248.00
2018-07-08T07:00:46.017Z,44704.00
2018-07-08T07:01:45.883Z,42816.00
2018-07-08T07:02:45.833Z,22432.00
2018-07-08T07:03:45.822Z,14208.00
2018-07-08T07:04:45.825Z,48416.00
2018-07-08T07:05:45.797Z,47168.00
2018-07-08T07:06:45.836Z,49216.00
2018-07-08T07:07:45.779Z,50112.00
2018-07-08T07:08:45.763Z,49248.00
2018-07-08T07:09:45.769Z,49408.00
2018-07-08T07:10:45.744Z,50336.00
2018-07-08T07:11:45.875Z,49696.00
2018-07-08T07:12:45.831Z,49920.00
2018-07-08T07:13:45.816Z,49088.00
2018-07-08T07:14:45.701Z,45696.00
2018-07-08T07:15:45.696Z,44704.00
2018-07-08T07:16:45.697Z,48448.00
2018-07-08T07:17:45.668Z,52160.00
2018-07-08T07:18:45.661Z,53568.00
2018-07-08T07:19:45.753Z,56256.00
2018-07-08T07:20:45.651Z,56544.00
2018-07-08T07:21:45.642Z,51072.00
2018-07-08T07:22:45.615Z,52416.00
2018-07-08T07:23:45.602Z,59104.00
2018-07-08T07:24:45.702Z,60448.00
2018-07-08T07:25:45.595Z,62656.00
2018-07-08T07:26:45.731Z,65664.00
2018-07-08T07:27:45.558Z,19008.00
2018-07-08T07:28:45.549Z,69824.00
2018-07-08T07:29:45.537Z,20608.00
2018-07-08T07:30:45.685Z,67456.00
2018-07-08T07:31:45.524Z,27456.00
2018-07-08T07:32:45.529Z,25088.00
2018-07-08T07:33:45.490Z,65824.00
2018-07-08T07:34:45.481Z,65600.00
2018-07-08T07:35:45.472Z,65664.00
2018-07-08T07:36:45.460Z,61888.00
2018-07-08T07:37:45.556Z,62528.00
2018-07-08T07:38:45.582Z,63776.00
2018-07-08T07:39:45.426Z,25312.00
2018-07-08T07:40:45.417Z,62048.00
2018-07-08T07:41:45.408Z,27552.00
2018-07-08T07:42:45.410Z,68480.00
2018-07-08T07:43:45.383Z,68672.00
2018-07-08T07:44:45.390Z,68160.00
2018-07-08T07:45:45.366Z,68032.00
2018-07-08T07:46:45.394Z,71200.00
2018-07-08T07:47:45.345Z,72768.00
2018-07-08T07:48:45.444Z,70624.00
2018-07-08T07:49:45.392Z,64128.00
2018-07-08T07:50:45.310Z,63616.00
2018-07-08T07:51:45.301Z,66208.00
2018-07-08T07:52:45.408Z,71520.00
2018-07-08T07:53:45.280Z,71392.00
2018-07-08T07:54:45.268Z,72896.00
2018-07-08T07:55:45.255Z,71872.00
2018-07-08T07:56:45.247Z,61568.00
2018-07-08T07:57:45.238Z,58816.00
2018-07-08T07:58:45.246Z,70592.00
2018-07-08T07:59:45.230Z,74848.00
2018-07-08T08:00:45.206Z,72320.00
2018-07-08T08:01:45.337Z,69280.00
2018-07-08T08:02:45.254Z,65536.00
2018-07-08T08:03:45.347Z,65824.00
2018-07-08T08:04:45.161Z,68992.00
2018-07-08T08:05:45.295Z,70592.00
2018-07-08T08:06:45.263Z,74432.00
2018-07-08T08:07:45.247Z,74272.00
2018-07-08T08:08:45.216Z,74656.00
2018-07-08T08:09:45.112Z,72256.00
2018-07-08T08:10:45.271Z,70752.00
2018-07-08T08:11:45.090Z,69984.00
2018-07-08T08:12:45.130Z,72352.00
2018-07-08T08:13:45.090Z,76032.00
2018-07-08T08:14:45.071Z,76768.00
2018-07-08T08:15:45.061Z,78304.00
2018-07-08T08:16:45.147Z,81344.00
2018-07-08T08:17:45.029Z,81920.00
2018-07-08T08:18:45.040Z,83520.00
2018-07-08T08:19:45.033Z,84352.00
2018-07-08T08:20:45.021Z,92416.00
2018-07-08T08:21:44.985Z,99840.00
2018-07-08T08:22:44.974Z,87232.00
2018-07-08T08:23:44.961Z,60608.00
2018-07-08T08:24:45.053Z,41344.00
2018-07-08T08:25:45.007Z,45312.00
2018-07-08T08:26:44.990Z,76384.00
2018-07-08T08:27:44.919Z,101952.00
2018-07-08T08:28:44.984Z,101024.00
2018-07-08T08:29:44.899Z,87520.00
2018-07-08T08:30:44.902Z,82656.00
2018-07-08T08:31:44.990Z,83648.00
2018-07-08T08:32:44.932Z,86944.00
2018-07-08T08:33:44.859Z,87168.00
2018-07-08T08:34:44.847Z,87808.00
2018-07-08T08:35:44.851Z,83328.00
2018-07-08T08:36:44.840Z,89344.00
2018-07-08T08:37:44.817Z,86176.00
2018-07-08T08:38:44.804Z,89984.00
2018-07-08T08:39:44.798Z,90272.00
2018-07-08T08:40:44.805Z,85248.00
2018-07-08T08:41:44.778Z,85888.00
2018-07-08T08:42:44.766Z,91968.00
2018-07-08T08:43:44.754Z,90528.00
2018-07-08T08:44:44.746Z,89184.00
2018-07-08T08:45:44.787Z,90784.00
2018-07-08T08:46:44.744Z,91328.00
2018-07-08T08:47:44.715Z,90784.00
2018-07-08T08:48:44.707Z,90304.00
2018-07-08T08:49:44.694Z,90624.00
2018-07-08T08:50:44.818Z,90624.00
2018-07-08T08:51:44.675Z,91552.00
2018-07-08T08:52:44.680Z,92672.00
2018-07-08T08:53:44.653Z,93952.00
2018-07-08T08:54:44.641Z,96160.00
2018-07-08T08:55:44.633Z,95200.00
2018-07-08T08:56:44.620Z,91840.00
2018-07-08T08:57:44.651Z,91200.00
2018-07-08T08:58:44.697Z,91872.00
2018-07-08T08:59:44.643Z,88768.00
2018-07-08T09:00:44.584Z,88160.00
2018-07-08T09:01:44.571Z,91264.00
2018-07-08T09:02:44.624Z,94176.00
2018-07-08T09:03:44.735Z,94432.00
2018-07-08T09:04:44.648Z,93024.00
2018-07-08T09:05:44.528Z,92736.00
2018-07-08T09:06:44.556Z,95520.00
2018-07-08T09:07:44.508Z,93600.00
2018-07-08T09:08:44.580Z,88896.00
2018-07-08T09:09:44.508Z,91552.00
2018-07-08T09:10:44.610Z,93344.00
2018-07-08T09:11:44.468Z,97856.00
2018-07-08T09:12:44.458Z,98848.00
2018-07-08T09:13:44.447Z,90368.00
2018-07-08T09:14:44.453Z,89088.00
2018-07-08T09:15:44.427Z,90816.00
2018-07-08T09:16:44.493Z,94080.00
2018-07-08T09:17:44.404Z,97056.00
2018-07-08T09:18:44.396Z,97856.00
2018-07-08T09:19:44.384Z,100384.00
2018-07-08T09:20:44.392Z,98784.00
2018-07-08T09:21:44.365Z,97376.00
2018-07-08T09:22:44.353Z,100576.00
2018-07-08T09:23:44.444Z,101664.00
2018-07-08T09:24:44.332Z,102240.00
2018-07-08T09:25:44.322Z,102816.00
2018-07-08T09:26:44.327Z,102880.00
2018-07-08T09:27:44.302Z,103104.00
2018-07-08T09:28:44.384Z,101440.00
2018-07-08T09:29:44.375Z,102656.00
2018-07-08T09:30:44.298Z,104256.00
2018-07-08T09:31:44.260Z,103168.00
2018-07-08T09:32:44.253Z,103616.00
2018-07-08T09:33:44.359Z,101216.00
2018-07-08T09:34:44.335Z,101952.00
2018-07-08T09:35:44.224Z,103360.00
2018-07-08T09:36:44.224Z,103264.00
2018-07-08T09:37:44.221Z,101216.00
2018-07-08T09:38:44.317Z,102688.00
2018-07-08T09:39:44.323Z,103360.00
2018-07-08T09:40:44.175Z,103360.00
2018-07-08T09:41:44.294Z,104928.00
2018-07-08T09:42:44.151Z,102720.00
2018-07-08T09:43:44.161Z,103456.00
2018-07-08T09:44:44.244Z,106720.00
2018-07-08T09:45:44.123Z,109600.00
2018-07-08T09:46:44.114Z,110464.00
2018-07-08T09:47:44.103Z,108000.00
2018-07-08T09:48:44.240Z,109248.00
2018-07-08T09:49:44.183Z,111296.00
2018-07-08T09:50:44.071Z,109888.00
2018-07-08T09:51:44.223Z,105888.00
2018-07-08T09:52:44.190Z,102368.00
2018-07-08T09:53:44.042Z,102400.00
2018-07-08T09:54:44.127Z,104320.00
2018-07-08T09:55:44.021Z,109280.00
2018-07-08T09:56:44.104Z,111232.00
2018-07-08T09:57:44.083Z,108864.00
2018-07-08T09:58:44.004Z,110816.00
2018-07-08T09:59:43.982Z,113248.00
2018-07-08T10:00:43.970Z,114080.00
2018-07-08T10:01:43.981Z,113376.00
2018-07-08T10:02:44.059Z,113088.00
2018-07-08T10:03:43.943Z,109728.00
2018-07-08T10:04:43.938Z,108544.00
2018-07-08T10:05:43.920Z,110592.00
2018-07-08T10:06:43.911Z,103488.00
2018-07-08T10:07:43.923Z,102720.00
2018-07-08T10:08:44.002Z,101632.00
2018-07-08T10:09:43.883Z,101280.00
2018-07-08T10:10:43.892Z,100352.00
2018-07-08T10:11:43.863Z,105216.00
2018-07-08T10:12:43.879Z,113408.00
2018-07-08T10:13:43.857Z,115808.00
2018-07-08T10:14:43.850Z,108192.00
2018-07-08T10:15:43.880Z,104384.00
2018-07-08T10:16:43.899Z,101216.00
2018-07-08T10:17:43.924Z,104960.00
2018-07-08T10:18:43.807Z,109664.00
2018-07-08T10:19:43.876Z,116800.00
2018-07-08T10:20:43.777Z,117888.00
2018-07-08T10:21:43.868Z,113728.00
2018-07-08T10:22:43.752Z,110400.00
2018-07-08T10:23:43.763Z,107360.00
2018-07-08T10:24:43.734Z,113760.00
2018-07-08T10:25:43.874Z,115648.00
2018-07-08T10:26:43.763Z,112832.00
2018-07-08T10:27:43.706Z,113280.00
2018-07-08T10:28:43.762Z,111584.00
2018-07-08T10:29:43.700Z,113024.00
2018-07-08T10:30:43.675Z,114528.00
2018-07-08T10:31:43.788Z,114496.00
2018-07-08T10:32:43.764Z,112288.00
2018-07-08T10:33:43.712Z,111040.00
2018-07-08T10:34:43.657Z,113088.00
2018-07-08T10:35:43.623Z,113472.00
2018-07-08T10:36:43.615Z,114464.00
2018-07-08T10:37:43.606Z,114848.00
2018-07-08T10:38:43.596Z,115008.00
2018-07-08T10:39:43.585Z,114848.00
2018-07-08T10:40:43.591Z,116128.00
2018-07-08T10:41:43.568Z,116192.00
2018-07-08T10:42:43.561Z,116032.00
2018-07-08T10:43:43.549Z,114048.00
2018-07-08T10:44:43.536Z,114976.00
2018-07-08T10:45:43.541Z,115936.00
2018-07-08T10:46:43.628Z,113472.00
2018-07-08T10:47:43.507Z,116320.00
2018-07-08T10:48:43.590Z,115008.00
2018-07-08T10:49:43.490Z,111040.00
2018-07-08T10:50:43.476Z,114688.00
2018-07-08T10:51:43.576Z,116768.00
2018-07-08T10:52:43.584Z,115488.00
2018-07-08T10:53:43.509Z,116864.00
2018-07-08T10:54:43.609Z,117472.00
2018-07-08T10:55:43.524Z,113120.00
2018-07-08T10:56:43.526Z,114304.00
2018-07-08T10:57:43.408Z,112448.00
2018-07-08T10:58:43.416Z,112192.00
2018-07-08T10:59:43.406Z,114912.00
2018-07-08T11:00:43.475Z,113280.00
2018-07-08T11:01:43.455Z,114848.00
2018-07-08T11:02:43.487Z,114304.00
2018-07-08T11:03:43.350Z,114752.00
2018-07-08T11:04:43.474Z,117536.00
2018-07-08T11:05:43.330Z,116768.00
2018-07-08T11:06:43.323Z,116512.00
2018-07-08T11:07:43.309Z,117504.00
2018-07-08T11:08:43.304Z,117120.00
2018-07-08T11:09:43.475Z,115840.00
2018-07-08T11:10:43.301Z,115648.00
2018-07-08T11:11:43.324Z,115360.00
2018-07-08T11:12:43.273Z,116096.00
2018-07-08T11:13:43.250Z,118016.00
2018-07-08T11:14:43.320Z,116416.00
2018-07-08T11:15:43.283Z,118976.00
2018-07-08T11:16:43.228Z,116352.00
2018-07-08T11:17:43.225Z,113824.00
2018-07-08T11:18:43.204Z,112576.00
2018-07-08T11:19:43.208Z,110752.00
2018-07-08T11:20:43.203Z,111872.00
2018-07-08T11:21:43.186Z,116224.00
2018-07-08T11:22:43.276Z,115584.00
2018-07-08T11:23:43.153Z,115520.00
2018-07-08T11:24:43.146Z,115776.00
2018-07-08T11:25:43.137Z,117600.00
2018-07-08T11:26:43.164Z,116576.00
2018-07-08T11:27:43.114Z,117600.00
2018-07-08T11:28:43.183Z,116768.00
2018-07-08T11:29:43.097Z,117312.00
2018-07-08T11:30:43.086Z,117280.00
2018-07-08T11:31:43.074Z,117696.00
2018-07-08T11:32:43.082Z,117376.00
2018-07-08T11:33:43.130Z,115776.00
2018-07-08T11:34:43.154Z,117440.00
2018-07-08T11:35:43.052Z,115072.00
2018-07-08T11:36:43.027Z,116128.00
2018-07-08T11:37:43.155Z,115008.00
2018-07-08T11:38:43.006Z,113920.00
2018-07-08T11:39:42.999Z,117216.00
2018-07-08T11:40:42.989Z,115968.00
2018-07-08T11:41:42.979Z,112416.00
2018-07-08T11:42:42.967Z,114816.00
2018-07-08T11:43:42.974Z,114784.00
2018-07-08T11:44:42.950Z,116800.00
2018-07-08T11:45:42.938Z,118208.00
2018-07-08T11:46:43.076Z,120128.00
2018-07-08T11:47:43.023Z,118112.00
2018-07-08T11:48:42.947Z,116704.00
2018-07-08T11:49:42.898Z,118016.00
2018-07-08T11:50:43.005Z,114528.00
2018-07-08T11:51:42.883Z,115552.00
2018-07-08T11:52:43.015Z,115488.00
2018-07-08T11:53:42.863Z,112576.00
2018-07-08T11:54:42.891Z,113888.00
2018-07-08T11:55:42.907Z,115328.00
2018-07-08T11:56:42.833Z,114464.00
2018-07-08T11:57:42.821Z,113280.00
2018-07-08T11:58:42.813Z,110528.00
2018-07-08T11:59:42.803Z,111264.00
2018-07-08T12:00:42.944Z,111424.00
2018-07-08T12:01:42.815Z,111616.00
2018-07-08T12:02:42.774Z,113856.00
2018-07-08T12:03:42.761Z,113952.00
2018-07-08T12:04:42.764Z,113728.00
2018-07-08T12:05:42.742Z,111456.00
2018-07-08T12:06:42.868Z,114432.00
2018-07-08T12:07:42.726Z,113856.00
2018-07-08T12:08:42.715Z,111072.00